Home   Weather   Sweden   Stockholm   Past weeks
Flag for Sweden

Past Weather in Stockholm, Sweden — Yesterday and Last 2 Weeks

Currently: 37 °F. Chilly. (Weather station: Stockholm Bromma Airport, Sweden). See more current weather

Past Weather in Stockholm — Graph

°F

Stockholm Temperature Yesterday

Maximum temperature yesterday: 55 °F (at 2:20 pm)
Minimum temperature yesterday: 39 °F (at 11:20 pm)
Average temperature yesterday: 48 °F

High & Low Weather Summary for the Past Weeks

 TemperatureHumidityPressure
High64 °F (May 6, 1:50 pm)100% (May 4, 3:50 am)30.42 "Hg (May 4, 3:50 am)
Low28 °F (May 4, 4:50 am)22% (May 3, 12:50 pm)29.42 "Hg (May 12, 6:50 am)
Average51 °F58%29.93 "Hg
* Reported May 2 4:20 am — May 17 4:20 am, Stockholm. Weather by CustomWeather, © 2022

Note: Actual official high and low records may vary slightly from our data, if they occured in-between our weather recording intervals... More about our weather records

Stockholm Weather History for the Previous 24 Hours

Scroll right to see more
 ConditionsComfort  
Time TempWeatherWind HumidityBarometerVisibility
4:20 am
Tue, May 17
34 °FChilly.3 mph100%30.21 "HgN/A
3:50 am34 °FChilly.3 mph93%30.21 "HgN/A
3:20 am34 °FChilly.2 mph93%30.21 "HgN/A
2:20 am36 °FChilly.2 mph93%30.21 "HgN/A
1:50 am37 °FOvercast.No wind87%30.21 "HgN/A
1:20 am36 °FPassing clouds.2 mph87%30.21 "HgN/A
12:50 am37 °FPassing clouds.No wind81%30.21 "HgN/A
12:20 am37 °FPassing clouds.1 mph81%30.21 "HgN/A
11:50 pm
Mon, May 16
39 °FChilly.No wind75%30.21 "HgN/A
11:20 pm39 °FChilly.1 mph75%30.18 "HgN/A
10:50 pm41 °FQuite cool.2 mph70%30.18 "HgN/A
10:20 pm43 °FQuite cool.2 mph66%30.18 "HgN/A
9:20 pm46 °FPassing clouds.5 mph57%30.18 "HgN/A
8:50 pm48 °FSunny.8 mph54%30.15 "Hg10 mi
8:20 pm50 °FSunny.10 mph54%30.15 "Hg10 mi
7:50 pm50 °FSunny.12 mph54%30.15 "Hg10 mi
7:20 pm55 °FPassing clouds.7 mph33%30.12 "HgN/A
6:50 pm55 °FSunny.8 mph31%30.12 "Hg10 mi
6:20 pm55 °FSunny.9 mph33%30.15 "Hg10 mi
5:50 pm55 °FPassing clouds.8 mph33%30.15 "HgN/A
5:20 pm55 °FPassing clouds.9 mph31%30.15 "HgN/A
4:50 pm55 °FPassing clouds.6 mph33%30.15 "HgN/A
3:50 pm55 °FPassing clouds.9 mph36%30.15 "HgN/A
3:20 pm55 °FPassing clouds.9 mph36%30.15 "HgN/A
2:50 pm55 °FPassing clouds.9 mph38%30.15 "HgN/A
2:20 pm55 °FPassing clouds.10 mph38%30.15 "HgN/A
1:50 pm54 °FPassing clouds.12 mph41%30.15 "HgN/A
1:20 pm54 °FSunny.13 mph44%30.15 "Hg10 mi
12:50 pm54 °FPassing clouds.12 mph41%30.15 "HgN/A
12:20 pm52 °FPassing clouds.12 mph44%30.18 "HgN/A
11:50 am52 °FPassing clouds.10 mph44%30.15 "HgN/A
11:20 am52 °FSunny.13 mph44%30.15 "Hg10 mi
10:20 am50 °FPassing clouds.10 mph43%30.15 "HgN/A
9:50 am48 °FPassing clouds.8 mph46%30.15 "HgN/A
9:20 am48 °FPassing clouds.9 mph46%30.15 "HgN/A
8:50 am46 °FPassing clouds.10 mph50%30.15 "HgN/A
8:20 am46 °FSunny.9 mph50%30.15 "Hg10 mi
7:50 am45 °FPassing clouds.10 mph53%30.15 "HgN/A
7:20 am45 °FPassing clouds.9 mph53%30.15 "HgN/A
6:50 am45 °FPassing clouds.9 mph53%30.15 "HgN/A
6:20 am43 °FSunny.9 mph57%30.15 "Hg10 mi
5:50 am43 °FQuite cool.8 mph57%30.15 "HgN/A
5:20 am41 °FQuite cool.6 mph61%30.12 "HgN/A
Weather by CustomWeather, © 2022

See weather overview